Time;durP1;ratioP1;P1;durP2;ratioP2;P2;SDS_P1;SDS_P2;PMS_P1;PMS_P2;Temp;Humidity;BMP_temperature;BMP_pressure;BME280_temperature;BME280_humidity;BME280_pressure;Samples;Min_cycle;Max_cycle;Signal;HPM_P1;HPM_P2
2023/01/17 00:01:49;;;;;;;2.97;0.80;;;;;;;3.04;100.00;98395.22;5076655;28;20097;-37
2023/01/17 00:09:57;;;;;;;3.38;0.70;;;;;;;2.78;100.00;98399.28;5077091;28;20495;-37
2023/01/17 00:12:28;;;;;;;3.55;0.80;;;;;;;2.79;100.00;98409.75;5076944;28;20028;-36
2023/01/17 00:14:56;;;;;;;1.80;0.60;;;;;;;2.66;100.00;98407.38;5076971;28;20024;-40
2023/01/17 00:17:22;;;;;;;1.38;0.50;;;;;;;2.66;100.00;98423.38;5076270;28;20039;-37
2023/01/17 01:34:59;;;;;;;4.65;0.90;;;;;;;1.97;100.00;98545.97;5074934;28;20040;-37
2023/01/17 01:37:25;;;;;;;0.83;0.37;;;;;;;2.01;100.00;98557.78;5074959;28;20024;-37
2023/01/17 01:39:50;;;;;;;2.93;0.67;;;;;;;2.00;100.00;98556.16;5074875;28;20025;-37
2023/01/17 01:42:16;;;;;;;1.93;0.53;;;;;;;1.95;100.00;98555.22;5074685;28;20047;-37
2023/01/17 01:44:52;;;;;;;1.30;0.50;;;;;;;1.95;100.00;98555.22;5075497;28;20056;-37
2023/01/17 01:47:36;;;;;;;1.13;0.40;;;;;;;1.96;100.00;98562.19;5075181;28;20115;-37
2023/01/17 01:50:05;;;;;;;4.78;1.55;;;;;;;2.00;100.00;98572.16;5074324;28;20044;-37
2023/01/17 01:52:34;;;;;;;1.77;0.63;;;;;;;2.01;100.00;98578.31;5074170;28;20059;-37
2023/01/17 01:55:06;;;;;;;2.58;0.60;;;;;;;2.00;100.00;98580.16;5075057;28;20109;-37
2023/01/17 01:57:36;;;;;;;1.75;0.50;;;;;;;2.00;100.00;98582.00;5074013;28;20039;-37
2023/01/17 02:00:07;;;;;;;1.73;1.05;;;;;;;1.95;100.00;98597.88;5072496;28;20048;-37
2023/01/17 02:02:33;;;;;;;2.20;0.60;;;;;;;1.93;100.00;98595.44;5074010;28;20085;-37
2023/01/17 02:04:59;;;;;;;;;;;;;;;1.99;100.00;98594.50;5074479;28;20074;-37
2023/01/17 02:07:31;;;;;;;1.60;0.60;;;;;;;1.82;100.00;98590.09;5073945;28;19965;-37
2023/01/17 02:09:57;;;;;;;1.17;0.60;;;;;;;1.86;100.00;98604.59;5074219;28;20115;-37
2023/01/17 02:12:23;;;;;;;1.48;0.60;;;;;;;1.85;100.00;98608.28;5074116;28;20025;-37
2023/01/17 02:14:49;;;;;;;;;;;;;;;1.91;100.00;98604.72;5074303;28;20485;-37
2023/01/17 02:17:22;;;;;;;1.65;0.75;;;;;;;1.83;100.00;98603.19;5074317;28;19959;-37
2023/01/17 02:20:13;;;;;;;1.65;0.70;;;;;;;1.78;100.00;98601.19;5072739;28;20123;-37
2023/01/17 02:22:49;;;;;;;4.22;1.00;;;;;;;1.82;100.00;98624.75;5074231;28;20024;-37
2023/01/17 02:25:36;;;;;;;1.88;1.00;;;;;;;1.68;100.00;98598.28;5074556;28;20039;-37
2023/01/17 02:28:16;;;;;;;2.58;1.20;;;;;;;1.75;100.00;98614.97;5073994;28;20024;-37
2023/01/17 02:30:53;;;;;;;2.25;1.20;;;;;;;1.68;100.00;98611.59;5074394;28;20115;-36
2023/01/17 02:33:28;;;;;;;3.97;1.27;;;;;;;1.72;100.00;98618.13;5074627;28;20033;-36
2023/01/17 02:35:53;;;;;;;2.42;1.08;;;;;;;1.72;100.00;98623.44;5073989;28;20020;-36
2023/01/17 02:38:46;;;;;;;3.20;1.20;;;;;;;1.73;100.00;98610.94;5073793;28;20063;-36
2023/01/17 02:41:20;;;;;;;2.70;0.88;;;;;;;1.65;100.00;98612.06;5073668;28;20094;-36
2023/01/17 02:43:49;;;;;;;2.85;0.68;;;;;;;1.60;100.00;98601.25;5074218;28;20035;-37
2023/01/17 02:46:14;;;;;;;3.40;1.30;;;;;;;1.61;100.00;98610.06;5074461;28;20074;-37
2023/01/17 02:48:40;;;;;;;2.27;0.70;;;;;;;1.54;100.00;98594.19;5073453;28;20029;-37
2023/01/17 02:51:30;;;;;;;2.70;0.63;;;;;;;1.58;100.00;98610.53;5073536;28;20025;-38
2023/01/17 02:54:26;;;;;;;2.97;0.93;;;;;;;1.52;100.00;98612.25;5073871;28;20032;-37
2023/01/17 02:57:10;;;;;;;1.38;0.38;;;;;;;1.53;100.00;98619.22;5074012;28;20108;-37
2023/01/17 02:59:50;;;;;;;2.20;0.50;;;;;;;1.46;100.00;98619.28;5074013;28;20101;-38
2023/01/17 03:02:39;;;;;;;2.00;0.57;;;;;;;1.44;100.00;98625.88;5073485;28;20060;-37
2023/01/17 03:05:29;;;;;;;1.70;0.60;;;;;;;1.43;100.00;98624.28;5073993;28;20032;-37
2023/01/17 03:07:55;;;;;;;4.05;1.17;;;;;;;1.39;100.00;98628.41;5073133;28;20024;-37
2023/01/17 03:10:22;;;;;;;1.92;0.60;;;;;;;1.29;100.00;98632.44;5073945;28;20038;-37
2023/01/17 03:12:47;;;;;;;0.95;0.40;;;;;;;1.27;100.00;98644.34;5073127;28;20054;-37
2023/01/17 03:15:16;;;;;;;1.33;0.57;;;;;;;1.20;100.00;98640.94;5073367;28;20499;-38
2023/01/17 03:17:47;;;;;;;1.33;0.70;;;;;;;1.10;100.00;98652.13;5073261;28;20383;-38
2023/01/17 03:20:12;;;;;;;3.33;0.77;;;;;;;1.14;100.00;98657.81;5073597;28;20047;-37
2023/01/17 03:22:38;;;;;;;2.27;0.60;;;;;;;1.13;100.00;98661.53;5074067;28;20028;-37
2023/01/17 03:25:04;;;;;;;1.35;0.40;;;;;;;1.06;100.00;98640.28;5055454;28;20028;-37
2023/01/17 03:27:29;;;;;;;;;;;;;;;1.17;100.00;98666.19;5073571;28;20036;-37
2023/01/17 03:29:54;;;;;;;0.67;0.33;;;;;;;1.07;100.00;98655.22;5073876;28;19912;-37
2023/01/17 03:32:20;;;;;;;1.80;0.60;;;;;;;1.02;100.00;98658.56;5055472;28;20334;-37
2023/01/17 03:34:45;;;;;;;3.53;0.60;;;;;;;0.88;100.00;98658.91;5074086;28;20071;-37
2023/01/17 03:37:10;;;;;;;2.10;0.60;;;;;;;0.95;100.00;98671.13;5073349;28;20376;-37
2023/01/17 03:39:36;;;;;;;0.93;0.40;;;;;;;0.90;100.00;98659.53;5073728;28;20504;-38
2023/01/17 03:42:01;;;;;;;3.37;0.80;;;;;;;0.89;100.00;98661.38;5073079;28;20029;-37
2023/01/17 03:44:26;;;;;;;1.70;0.50;;;;;;;0.93;100.00;98653.78;5073112;28;20357;-38
2023/01/17 03:46:52;;;;;;;1.87;0.60;;;;;;;0.92;100.00;98654.78;5073241;28;20052;-37
2023/01/17 03:49:17;;;;;;;1.77;0.50;;;;;;;0.93;100.00;98665.22;5072971;28;20021;-37
2023/01/17 03:51:42;;;;;;;3.60;0.60;;;;;;;0.75;100.00;98644.72;5073193;28;20025;-38
2023/01/17 03:54:08;;;;;;;1.43;0.60;;;;;;;0.79;100.00;98646.97;5072732;28;20021;-37
2023/01/17 03:56:33;;;;;;;2.97;0.60;;;;;;;0.78;100.00;98654.09;5073484;28;20115;-37
2023/01/17 03:58:58;;;;;;;3.40;0.70;;;;;;;0.93;100.00;98667.88;5072676;28;20025;-36
2023/01/17 04:01:24;;;;;;;1.73;0.60;;;;;;;0.85;100.00;98665.50;5075136;28;20025;-36
2023/01/17 04:03:49;;;;;;;2.77;0.53;;;;;;;0.92;100.00;98670.75;5058697;28;20064;-37
2023/01/17 04:06:15;;;;;;;0.83;0.43;;;;;;;0.85;100.00;98656.72;5076803;28;20124;-37
2023/01/17 04:08:40;;;;;;;2.27;0.83;;;;;;;0.95;100.00;98680.97;5077995;28;20437;-37
2023/01/17 04:11:06;;;;;;;2.17;0.67;;;;;;;0.91;100.00;98669.94;5076725;28;20267;-37
2023/01/17 04:13:31;;;;;;;5.43;0.85;;;;;;;0.85;100.00;98670.03;5076228;28;20670;-37
2023/01/17 04:15:57;;;;;;;2.90;0.70;;;;;;;0.94;100.00;98674.03;5076534;28;20027;-37
2023/01/17 04:18:23;;;;;;;3.07;0.97;;;;;;;0.93;100.00;98685.72;5076905;28;20298;-37
2023/01/17 04:20:49;;;;;;;1.80;0.75;;;;;;;0.89;100.00;98688.00;5076806;28;20345;-37
2023/01/17 04:23:15;;;;;;;;;;;;;;;0.96;100.00;98682.59;5076668;28;20107;-37
2023/01/17 04:25:40;;;;;;;1.92;0.63;;;;;;;0.83;100.00;98677.41;5076182;28;20046;-37
2023/01/17 04:28:06;;;;;;;1.60;0.60;;;;;;;0.92;100.00;98682.19;5076788;28;20033;-37
2023/01/17 04:30:32;;;;;;;1.60;0.70;;;;;;;0.91;100.00;98685.91;5076129;28;20107;-36
2023/01/17 04:32:57;;;;;;;3.35;0.52;;;;;;;0.91;100.00;98675.25;5076925;28;20258;-37
2023/01/17 04:35:23;;;;;;;1.45;0.60;;;;;;;0.91;100.00;98677.09;5075964;28;20428;-37
2023/01/17 04:37:49;;;;;;;2.07;0.87;;;;;;;0.90;100.00;98667.50;5076082;28;20103;-37
2023/01/17 04:40:14;;;;;;;4.85;0.60;;;;;;;0.89;100.00;98681.84;5076295;28;20258;-37
2023/01/17 04:42:40;;;;;;;2.45;0.70;;;;;;;0.86;100.00;98672.44;5058988;28;20044;-37
2023/01/17 04:45:06;;;;;;;3.13;1.33;;;;;;;0.85;100.00;98678.00;5075870;28;20037;-37
2023/01/17 04:47:32;;;;;;;4.50;0.88;;;;;;;0.78;100.00;98675.38;5075734;28;20107;-37
2023/01/17 04:49:58;;;;;;;;;;;;;;;0.86;100.00;98674.31;5076561;28;20028;-37
2023/01/17 04:52:24;;;;;;;3.67;0.80;;;;;;;0.74;100.00;98675.03;5075681;28;20288;-37
2023/01/17 04:54:49;;;;;;;3.17;0.80;;;;;;;0.76;100.00;98675.63;5075716;28;20025;-37
2023/01/17 04:57:16;;;;;;;3.58;0.93;;;;;;;0.69;100.00;98682.88;5076392;28;20523;-37
2023/01/17 04:59:42;;;;;;;4.63;1.15;;;;;;;0.63;100.00;98673.09;5075630;28;20393;-38
2023/01/17 05:02:08;;;;;;;2.45;0.60;;;;;;;0.66;100.00;98677.97;5075481;28;20036;-37
2023/01/17 05:04:33;;;;;;;5.00;1.15;;;;;;;0.65;100.00;98680.88;5075732;28;20535;-37
2023/01/17 05:06:59;;;;;;;3.13;1.00;;;;;;;0.67;100.00;98681.44;5075469;28;20423;-37
2023/01/17 05:09:24;;;;;;;3.60;1.40;;;;;;;0.63;100.00;98683.72;5075098;28;20487;-37
2023/01/17 05:11:50;;;;;;;4.43;1.40;;;;;;;0.66;100.00;98688.63;5074944;28;20161;-38
2023/01/17 05:14:15;;;;;;;5.80;1.70;;;;;;;0.58;100.00;98680.09;5075355;28;20246;-37
2023/01/17 05:16:40;;;;;;;6.67;2.47;;;;;;;0.55;100.00;98677.91;5075185;28;20036;-38
2023/01/17 05:19:06;;;;;;;4.20;2.07;;;;;;;0.52;100.00;98684.44;5075235;28;20025;-37
2023/01/17 05:21:31;;;;;;;5.43;2.20;;;;;;;0.54;100.00;98684.22;5074932;28;20029;-37
2023/01/17 05:23:56;;;;;;;5.90;2.50;;;;;;;0.40;100.00;98676.38;5075442;28;20087;-40
2023/01/17 05:26:22;;;;;;;8.30;3.05;;;;;;;0.50;100.00;98682.00;5074768;28;20518;-37
2023/01/17 05:28:48;;;;;;;5.43;2.88;;;;;;;0.55;100.00;98693.84;5075894;28;20082;-37
2023/01/17 05:31:13;;;;;;;6.37;3.33;;;;;;;0.55;100.00;98688.53;5075553;28;20115;-37
2023/01/17 05:33:38;;;;;;;11.40;6.63;;;;;;;0.38;100.00;98669.63;5075004;28;20259;-38
2023/01/17 05:36:04;;;;;;;10.13;6.20;;;;;;;0.43;100.00;98680.44;5074795;28;20098;-37
2023/01/17 05:38:29;;;;;;;9.07;5.43;;;;;;;0.51;100.00;98694.28;5075116;28;20021;-37
2023/01/17 05:40:58;;;;;;;11.30;6.77;;;;;;;0.52;100.00;98698.56;5075001;28;20029;-37
2023/01/17 05:43:24;;;;;;;7.82;4.63;;;;;;;0.44;100.00;98687.38;5074985;28;20027;-37
2023/01/17 05:45:49;;;;;;;7.60;3.87;;;;;;;0.52;100.00;98695.09;5075214;28;20453;-37
2023/01/17 05:48:14;;;;;;;5.07;3.57;;;;;;;0.56;100.00;98692.81;5075198;28;20024;-37
2023/01/17 05:50:39;;;;;;;8.10;3.80;;;;;;;0.51;100.00;98699.59;5075383;28;20028;-37
2023/01/17 05:53:08;;;;;;;8.67;3.50;;;;;;;0.54;100.00;98695.69;5074899;28;20028;-37
2023/01/17 05:55:34;;;;;;;7.47;3.70;;;;;;;0.46;100.00;98704.75;5074289;28;20040;-38
2023/01/17 05:58:00;;;;;;;5.82;3.47;;;;;;;0.50;100.00;98705.16;5074399;28;20453;-37
2023/01/17 06:00:26;;;;;;;5.93;3.90;;;;;;;0.45;100.00;98710.31;5074770;28;20064;-37
2023/01/17 06:02:56;;;;;;;6.80;4.10;;;;;;;0.41;100.00;98711.75;5074362;28;20452;-37
2023/01/17 06:05:23;;;;;;;7.82;4.13;;;;;;;0.30;100.00;98704.50;5074615;28;20073;-37
2023/01/17 06:07:49;;;;;;;7.25;3.97;;;;;;;0.37;100.00;98710.56;5073997;28;20025;-37
2023/01/17 06:10:16;;;;;;;9.20;4.20;;;;;;;0.31;100.00;98706.13;5073934;28;20023;-37
2023/01/17 06:12:43;;;;;;;8.07;4.68;;;;;;;0.37;100.00;98715.88;5073864;28;20032;-36
2023/01/17 06:15:10;;;;;;;10.10;4.80;;;;;;;0.40;100.00;98726.09;5074986;28;20037;-37
2023/01/17 06:17:36;;;;;;;5.75;4.35;;;;;;;0.33;100.00;98720.00;5074807;28;20024;-37
2023/01/17 06:20:04;;;;;;;7.85;5.38;;;;;;;0.35;100.00;98723.28;5074615;28;20028;-37
2023/01/17 06:22:29;;;;;;;7.55;5.30;;;;;;;0.28;100.00;98711.84;5074251;28;20035;-37
2023/01/17 06:24:55;;;;;;;9.97;5.33;;;;;;;0.32;100.00;98724.50;5073547;28;20024;-37
2023/01/17 06:27:20;;;;;;;13.10;6.73;;;;;;;0.31;100.00;98722.88;5073989;28;20044;-37
2023/01/17 06:29:46;;;;;;;9.35;6.75;;;;;;;0.20;100.00;98705.78;5074192;28;20090;-37
2023/01/17 06:32:12;;;;;;;11.87;6.70;;;;;;;0.25;100.00;98726.41;5073825;28;20436;-37
2023/01/17 06:34:39;;;;;;;10.75;6.25;;;;;;;0.25;100.00;98729.06;5073778;28;20469;-37
2023/01/17 06:37:04;;;;;;;11.27;7.88;;;;;;;0.15;100.00;98716.25;5074215;28;20419;-37
2023/01/17 06:39:30;;;;;;;11.27;6.80;;;;;;;0.19;100.00;98733.38;5073741;28;20059;-38
2023/01/17 06:41:55;;;;;;;10.17;6.63;;;;;;;0.22;100.00;98737.47;5073482;28;20499;-37
2023/01/17 06:44:21;;;;;;;8.80;6.83;;;;;;;0.15;100.00;98729.53;5073697;28;20035;-37
2023/01/17 06:46:46;;;;;;;;;;;;;;;0.23;100.00;98741.75;5073873;28;20060;-37
2023/01/17 06:49:13;;;;;;;11.40;6.32;;;;;;;0.13;100.00;98730.78;5074503;28;19966;-37
2023/01/17 06:51:38;;;;;;;11.70;6.88;;;;;;;0.10;100.00;98731.19;5056335;28;20534;-37
2023/01/17 06:54:04;;;;;;;12.32;6.93;;;;;;;0.14;100.00;98732.41;5073885;28;20059;-37
2023/01/17 06:56:31;;;;;;;10.17;7.43;;;;;;;0.12;100.00;98734.47;5055173;28;20469;-37
2023/01/17 06:58:56;;;;;;;14.20;7.03;;;;;;;0.06;100.00;98730.84;5073547;28;20025;-37
2023/01/17 07:01:22;;;;;;;9.13;6.83;;;;;;;0.06;100.00;98736.16;5073309;28;20404;-37
2023/01/17 07:03:47;;;;;;;10.35;7.40;;;;;;;0.06;100.00;98740.66;5073571;28;20050;-37
2023/01/17 07:06:13;;;;;;;10.57;7.13;;;;;;;0.04;100.00;98740.84;5073380;28;20115;-37
2023/01/17 07:08:38;;;;;;;12.97;7.83;;;;;;;0.02;100.00;98729.63;5073203;28;20028;-36
2023/01/17 07:11:06;;;;;;;15.35;7.75;;;;;;;-0.08;100.00;98723.97;5073466;28;20047;-37
2023/01/17 07:13:38;;;;;;;13.13;8.10;;;;;;;-0.06;100.00;98729.88;5055490;28;20036;-36
2023/01/17 07:16:05;;;;;;;8.98;6.63;;;;;;;-0.09;100.00;98725.81;5073567;28;20082;-36
2023/01/17 07:18:31;;;;;;;10.35;7.63;;;;;;;-0.04;100.00;98736.63;5073595;28;20458;-37
2023/01/17 07:20:57;;;;;;;11.05;7.38;;;;;;;-0.07;100.00;98742.34;5073262;28;20044;-36
2023/01/17 07:23:23;;;;;;;8.85;7.03;;;;;;;-0.08;100.00;98734.59;5073314;28;20024;-37
2023/01/17 07:25:59;;;;;;;10.23;6.72;;;;;;;-0.13;100.00;98734.41;5074127;28;20098;-37
2023/01/17 07:28:26;;;;;;;10.27;6.65;;;;;;;-0.14;100.00;98741.59;5073556;28;20037;-37
2023/01/17 07:30:51;;;;;;;10.77;6.95;;;;;;;-0.17;100.00;98738.53;5073162;28;20095;-36
2023/01/17 07:33:18;;;;;;;8.88;7.10;;;;;;;-0.05;100.00;98752.75;5072865;28;20130;-36
2023/01/17 07:35:43;;;;;;;12.70;7.88;;;;;;;-0.11;100.00;98762.38;5075394;28;20028;-37
2023/01/17 07:38:14;;;;;;;11.25;7.95;;;;;;;-0.06;100.00;98761.75;5077234;28;20532;-36
2023/01/17 07:40:40;;;;;;;10.55;7.13;;;;;;;-0.08;100.00;98756.66;5078012;28;20035;-36
2023/01/17 07:43:12;;;;;;;14.90;9.13;;;;;;;-0.16;100.00;98756.91;5059158;28;20059;-36
2023/01/17 07:45:49;;;;;;;11.77;7.80;;;;;;;-0.12;100.00;98766.09;5076994;28;20476;-37
2023/01/17 07:48:16;;;;;;;17.65;8.82;;;;;;;-0.22;100.00;98764.91;5077054;28;20430;-37
2023/01/17 07:50:42;;;;;;;11.50;6.88;;;;;;;-0.19;100.00;98761.84;5076604;28;20064;-37
2023/01/17 07:53:08;;;;;;;10.73;6.57;;;;;;;-0.16;100.00;98769.38;5077692;28;20036;-37
2023/01/17 07:55:33;;;;;;;13.90;7.85;;;;;;;-0.22;100.00;98764.91;5076657;28;20033;-37
2023/01/17 07:57:59;;;;;;;10.38;6.70;;;;;;;-0.24;100.00;98751.00;5059332;28;20097;-37
2023/01/17 08:00:26;;;;;;;12.90;8.30;;;;;;;-0.34;100.00;98747.00;5076893;28;20048;-37
2023/01/17 08:02:56;;;;;;;11.93;6.68;;;;;;;-0.26;100.00;98759.19;5077401;28;20024;-37
2023/01/17 08:05:22;;;;;;;11.57;6.53;;;;;;;-0.15;100.00;98773.66;5076886;28;20036;-37
2023/01/17 08:07:47;;;;;;;11.35;7.35;;;;;;;-0.10;100.00;98768.50;5076292;28;20416;-37
2023/01/17 08:10:16;;;;;;;11.02;7.47;;;;;;;-0.09;100.00;98770.16;5076316;28;20425;-37
2023/01/17 08:12:43;;;;;;;8.75;5.95;;;;;;;-0.01;100.00;98767.25;5076115;28;20469;-37
2023/01/17 08:15:09;;;;;;;10.15;6.47;;;;;;;-0.02;100.00;98773.59;5077003;28;20066;-37
2023/01/17 08:17:35;;;;;;;11.60;7.30;;;;;;;0.05;100.00;98766.41;5076593;28;20024;-37
2023/01/17 08:20:00;;;;;;;11.00;6.70;;;;;;;0.10;100.00;98752.44;5076454;28;20037;-37
2023/01/17 08:22:25;;;;;;;11.20;6.90;;;;;;;0.17;100.00;98766.53;5076038;28;20539;-36
2023/01/17 08:24:51;;;;;;;12.57;6.80;;;;;;;0.30;100.00;98773.63;5059279;28;20024;-37
2023/01/17 08:27:16;;;;;;;9.87;6.57;;;;;;;0.30;100.00;98774.44;5076185;28;20028;-37
2023/01/17 08:29:45;;;;;;;10.97;6.60;;;;;;;0.31;100.00;98775.25;5076228;28;20024;-37
2023/01/17 08:32:11;;;;;;;8.75;6.43;;;;;;;0.24;100.00;98780.59;5076346;28;20377;-36
2023/01/17 08:34:36;;;;;;;10.85;6.85;;;;;;;0.24;100.00;98777.94;5076747;28;20028;-37
2023/01/17 08:37:02;;;;;;;10.43;7.53;;;;;;;0.27;100.00;98774.03;5058147;28;20028;-37
2023/01/17 08:39:27;;;;;;;12.87;6.93;;;;;;;0.23;100.00;98777.13;5075746;28;20032;-37
2023/01/17 08:41:52;;;;;;;9.90;6.90;;;;;;;0.29;100.00;98775.44;5076236;28;20263;-37
2023/01/17 08:44:18;;;;;;;14.57;6.97;;;;;;;0.34;100.00;98772.13;5075994;28;20024;-37
2023/01/17 08:46:44;;;;;;;10.00;6.50;;;;;;;0.37;100.00;98777.84;5075356;28;20028;-37
2023/01/17 08:49:10;;;;;;;10.35;7.25;;;;;;;0.35;100.00;98784.44;5075634;28;20028;-37
2023/01/17 08:51:36;;;;;;;10.30;6.80;;;;;;;0.31;100.00;98770.75;5076540;28;20115;-37
2023/01/17 08:54:01;;;;;;;10.15;6.88;;;;;;;0.44;100.00;98789.25;5076587;28;20056;-37
2023/01/17 08:56:27;;;;;;;9.77;6.87;;;;;;;0.31;100.00;98773.41;5075378;28;20025;-37
2023/01/17 08:58:52;;;;;;;10.50;7.40;;;;;;;0.34;100.00;98775.63;5076480;28;20480;-37
2023/01/17 09:01:18;;;;;;;8.38;6.88;;;;;;;0.51;100.00;98783.88;5076162;28;20428;-37
2023/01/17 09:03:44;;;;;;;11.30;7.37;;;;;;;0.32;100.00;98761.72;5075342;28;20029;-37
2023/01/17 09:06:13;;;;;;;;;;;;;;;0.57;100.00;98787.53;5075563;28;20032;-37
2023/01/17 09:08:39;;;;;;;11.80;8.18;;;;;;;0.53;100.00;98789.78;5075155;28;19919;-37
2023/01/17 09:11:10;;;;;;;13.27;7.82;;;;;;;0.48;100.00;98798.41;5057048;28;20495;-36
2023/01/17 09:13:36;;;;;;;9.63;7.47;;;;;;;0.51;100.00;98797.19;5075617;28;20094;-36
2023/01/17 09:16:03;;;;;;;13.18;7.70;;;;;;;0.59;100.00;98802.25;5074900;28;20464;-36
2023/01/17 09:18:29;;;;;;;13.38;7.93;;;;;;;0.49;100.00;98788.63;5075172;28;20075;-37
2023/01/17 09:20:58;;;;;;;9.85;7.65;;;;;;;0.61;100.00;98808.16;5075162;28;20024;-37
2023/01/17 09:23:25;;;;;;;12.50;8.30;;;;;;;0.61;100.00;98797.50;5074929;28;20032;-37
2023/01/17 09:25:58;;;;;;;10.52;7.50;;;;;;;0.80;100.00;98808.22;5075574;28;20036;-37
2023/01/17 09:28:25;;;;;;;8.82;6.68;;;;;;;0.88;100.00;98803.44;5074848;28;20029;-37
2023/01/17 09:30:52;;;;;;;10.27;7.70;;;;;;;0.86;100.00;98810.00;5074594;28;20037;-37
2023/01/17 09:33:18;;;;;;;10.00;6.65;;;;;;;0.86;100.00;98807.34;5075560;28;20054;-37
2023/01/17 09:35:44;;;;;;;9.18;6.85;;;;;;;1.00;100.00;98806.19;5075108;28;20111;-37
2023/01/17 09:38:10;;;;;;;;;;;;;;;1.14;100.00;98810.38;5075650;28;20032;-37
2023/01/17 09:40:40;;;;;;;9.88;7.38;;;;;;;1.13;100.00;98816.75;5074531;28;19912;-37
2023/01/17 09:43:20;;;;;;;8.55;7.00;;;;;;;1.23;100.00;98810.91;5074510;28;20024;-37
2023/01/17 09:45:46;;;;;;;12.02;8.20;;;;;;;1.23;100.00;98806.41;5074411;28;20033;-37
2023/01/17 09:48:21;;;;;;;9.53;7.23;;;;;;;1.23;100.00;98801.06;5075557;28;20031;-37
2023/01/17 09:50:51;;;;;;;8.18;6.50;;;;;;;1.43;100.00;98814.19;5074907;28;20119;-37
2023/01/17 09:53:21;;;;;;;9.63;7.60;;;;;;;1.58;100.00;98803.16;5074363;28;20025;-37
2023/01/17 09:56:06;;;;;;;9.73;6.90;;;;;;;1.73;100.00;98819.56;5072652;28;20094;-37
2023/01/17 09:58:48;;;;;;;8.10;5.97;;;;;;;1.77;100.00;98822.63;5074261;28;20086;-37
2023/01/17 10:01:29;;;;;;;10.75;6.75;;;;;;;1.83;100.00;98823.56;5074769;28;20094;-37
2023/01/17 10:04:26;;;;;;;8.55;6.32;;;;;;;1.73;100.00;98814.25;5074625;28;20377;-37
2023/01/17 10:07:27;;;;;;;7.97;5.90;;;;;;;1.96;100.00;98832.22;5074357;28;20028;-37
2023/01/17 10:10:05;;;;;;;13.63;6.78;;;;;;;2.05;100.00;98832.75;5074793;28;20047;-37
2023/01/17 10:12:55;;;;;;;8.77;6.57;;;;;;;2.10;100.00;98827.53;5074255;28;20028;-37
2023/01/17 10:15:48;;;;;;;10.70;6.80;;;;;;;2.02;100.00;98828.66;5074944;28;20071;-37
2023/01/17 10:18:28;;;;;;;9.75;6.60;;;;;;;2.09;100.00;98825.91;5074353;28;20028;-37
2023/01/17 10:21:11;;;;;;;10.05;6.00;;;;;;;2.08;100.00;98832.28;5074634;28;20443;-37
2023/01/17 10:24:15;;;;;;;7.15;6.00;;;;;;;2.15;100.00;98829.50;5074611;28;20032;-37
2023/01/17 10:26:42;;;;;;;8.45;5.88;;;;;;;2.29;100.00;98828.28;5055717;28;20038;-37
2023/01/17 10:29:17;;;;;;;9.15;6.07;;;;;;;2.31;100.00;98820.91;5074000;28;20159;-37
2023/01/17 10:31:53;;;;;;;11.05;6.70;;;;;;;2.30;100.00;98822.75;5074169;28;20105;-37
2023/01/17 10:34:22;;;;;;;9.75;6.07;;;;;;;2.37;100.00;98827.97;5074191;28;20028;-37
2023/01/17 10:37:00;;;;;;;8.38;5.68;;;;;;;2.39;100.00;98825.09;5073683;28;20025;-35
2023/01/17 10:39:29;;;;;;;8.55;5.30;;;;;;;2.47;100.00;98830.09;5074337;28;20103;-38
2023/01/17 10:41:58;;;;;;;7.82;5.15;;;;;;;2.45;100.00;98819.66;5073778;28;20111;-37
2023/01/17 10:44:38;;;;;;;9.93;5.68;;;;;;;2.66;100.00;98826.34;5073774;28;20457;-36
2023/01/17 10:47:18;;;;;;;7.78;5.57;;;;;;;2.77;100.00;98828.19;5073958;28;20416;-37
2023/01/17 10:49:47;;;;;;;10.77;5.68;;;;;;;2.90;100.00;98831.72;5074023;28;20113;-37
2023/01/17 10:52:26;;;;;;;7.60;5.22;;;;;;;3.05;100.00;98829.41;5073585;28;20024;-37
2023/01/17 10:55:21;;;;;;;7.15;5.38;;;;;;;3.10;100.00;98826.84;5073943;28;20111;-36
2023/01/17 10:57:48;;;;;;;6.97;4.50;;;;;;;3.15;100.00;98829.66;5073781;28;20465;-36
2023/01/17 11:00:22;;;;;;;6.85;4.78;;;;;;;3.23;100.00;98831.16;5073597;28;20492;-36
2023/01/17 11:02:49;;;;;;;11.00;6.15;;;;;;;3.34;100.00;98827.69;5055615;28;20044;-37
2023/01/17 11:05:35;;;;;;;10.05;5.63;;;;;;;3.29;100.00;98822.22;5073763;28;20373;-37
2023/01/17 11:08:03;;;;;;;13.63;6.95;;;;;;;3.16;100.00;98820.59;5072739;28;20439;-37
2023/01/17 11:10:46;;;;;;;11.65;6.78;;;;;;;3.10;100.00;98821.53;5073603;28;20024;-37
2023/01/17 11:13:27;;;;;;;10.60;6.70;;;;;;;3.13;100.00;98821.06;5073680;28;20545;-37
2023/01/17 11:15:56;;;;;;;8.90;6.10;;;;;;;3.21;100.00;98810.00;5073337;28;20021;-37
2023/01/17 11:18:26;;;;;;;9.65;6.35;;;;;;;3.33;100.00;98810.84;5074154;28;20024;-37
2023/01/17 11:21:05;;;;;;;5.93;3.95;;;;;;;3.30;100.00;98816.63;5073250;28;20059;-37
2023/01/17 11:23:32;;;;;;;9.90;5.80;;;;;;;3.31;100.00;98812.09;5074141;28;20059;-37
2023/01/17 11:26:01;;;;;;;9.25;5.10;;;;;;;3.26;100.00;98818.13;5073614;28;20038;-37
2023/01/17 11:28:32;;;;;;;8.48;4.20;;;;;;;3.22;100.00;98819.69;5073837;28;20035;-37
2023/01/17 11:31:07;;;;;;;8.23;4.32;;;;;;;3.14;100.00;98809.34;5073843;28;20454;-37
2023/01/17 11:33:45;;;;;;;9.25;5.90;;;;;;;3.18;100.00;98823.84;5073235;28;20052;-37
2023/01/17 11:36:29;;;;;;;6.75;4.70;;;;;;;3.13;100.00;98815.72;5072722;28;20028;-37
2023/01/17 11:38:58;;;;;;;7.15;4.95;;;;;;;3.07;100.00;98805.94;5073763;28;20457;-37
2023/01/17 11:41:26;;;;;;;8.02;5.25;;;;;;;3.16;100.00;98798.41;5073422;28;20029;-37
2023/01/17 11:43:57;;;;;;;10.48;6.45;;;;;;;3.32;100.00;98813.75;5073668;28;20027;-37
2023/01/17 11:46:23;;;;;;;7.80;4.82;;;;;;;3.39;100.00;98800.25;5073362;28;20025;-37
2023/01/17 11:48:51;;;;;;;8.32;4.65;;;;;;;3.48;100.00;98804.22;5073186;28;20365;-37
2023/01/17 11:51:20;;;;;;;7.78;4.75;;;;;;;3.41;100.00;98790.13;5073388;28;20082;-37
2023/01/17 11:53:47;;;;;;;8.43;4.55;;;;;;;3.46;100.00;98807.09;5073651;28;20078;-38
2023/01/17 11:56:24;;;;;;;7.47;4.20;;;;;;;3.44;100.00;98806.53;5072593;28;20464;-36
2023/01/17 11:58:50;;;;;;;9.30;5.43;;;;;;;3.41;100.00;98803.50;5073559;28;20094;-37
2023/01/17 12:01:44;;;;;;;6.88;4.50;;;;;;;3.48;100.00;98804.22;5073421;28;20048;-37
2023/01/17 12:04:42;;;;;;;8.15;4.88;;;;;;;3.56;100.00;98796.66;5073013;28;20108;-37
2023/01/17 12:07:30;;;;;;;7.88;4.03;;;;;;;3.54;100.00;98771.19;5073661;28;20365;-37
2023/01/17 12:10:01;;;;;;;9.15;4.28;;;;;;;3.76;100.00;98801.59;5072503;28;20037;-37
2023/01/17 12:15:25;;;;;;;6.75;3.88;;;;;;;3.81;100.00;98800.91;5073157;28;20446;-38
2023/01/17 12:18:20;;;;;;;4.65;3.03;;;;;;;3.77;100.00;98789.84;5073371;28;20095;-37
2023/01/17 12:21:04;;;;;;;4.45;2.95;;;;;;;3.90;100.00;98803.97;5073015;28;20032;-37
2023/01/17 12:23:45;;;;;;;6.45;3.03;;;;;;;3.90;96.67;98794.09;5075951;28;20058;-37
2023/01/17 12:26:31;;;;;;;4.30;2.53;;;;;;;3.96;97.60;98795.84;5077083;28;20334;-36
2023/01/17 12:29:18;;;;;;;3.97;2.95;;;;;;;3.96;98.49;98787.81;5076804;28;20025;-37
2023/01/17 12:32:10;;;;;;;;;;;;;;;4.00;99.81;98793.47;5077120;28;20144;-36
2023/01/17 12:34:49;;;;;;;8.35;3.00;;;;;;;3.87;96.19;98789.25;5076062;28;19915;-37
2023/01/17 12:37:38;;;;;;;4.70;2.90;;;;;;;3.90;95.91;98783.41;5076243;28;20028;-37
2023/01/17 12:40:21;;;;;;;4.05;2.72;;;;;;;3.92;96.53;98775.16;5076085;28;20102;-37
2023/01/17 12:42:57;;;;;;;5.43;2.40;;;;;;;4.03;97.06;98782.31;5076237;28;20485;-36
2023/01/17 12:45:36;;;;;;;3.90;2.50;;;;;;;4.05;94.72;98781.03;5075680;28;20031;-36
2023/01/17 12:48:14;;;;;;;4.00;2.50;;;;;;;4.01;92.14;98779.91;5076246;28;20034;-37
2023/01/17 12:50:50;;;;;;;4.28;2.53;;;;;;;3.92;90.91;98780.50;5075868;28;20603;-36
2023/01/17 12:53:24;;;;;;;6.07;2.55;;;;;;;3.93;92.63;98774.09;5075534;28;20032;-36
2023/01/17 12:56:31;;;;;;;3.78;2.28;;;;;;;3.96;92.18;98777.13;5076254;28;20028;-37
2023/01/17 12:59:12;;;;;;;4.38;2.38;;;;;;;3.87;91.45;98768.66;4975020;28;20053;-37
2023/01/17 13:01:41;;;;;;;4.97;2.70;;;;;;;3.93;91.95;98774.91;4974626;28;20185;-37
2023/01/17 13:04:25;;;;;;;5.72;2.85;;;;;;;3.95;91.93;98780.00;4974862;28;20035;-37
2023/01/17 13:06:59;;;;;;;4.13;2.88;;;;;;;3.93;89.86;98776.78;4975000;28;20111;-37
2023/01/17 13:09:28;;;;;;;4.32;2.13;;;;;;;3.92;89.30;98775.97;4975271;28;20035;-37
2023/01/17 13:12:04;;;;;;;4.03;2.15;;;;;;;3.93;88.43;98774.91;4974417;28;20138;-37
2023/01/17 13:14:29;;;;;;;4.38;2.00;;;;;;;3.87;87.68;98779.34;4974677;28;20093;-37